createdAt,value
2023-03-12T00:01:16.186Z,-2.90
2023-03-12T00:03:43.103Z,-3.00
2023-03-12T00:06:11.120Z,-3.10
2023-03-12T00:08:38.269Z,-3.00
2023-03-12T00:11:10.272Z,-3.10
2023-03-12T00:13:37.556Z,-3.00
2023-03-12T00:16:15.443Z,-2.90
2023-03-12T00:18:43.704Z,-3.00
2023-03-12T00:21:10.784Z,-3.10
2023-03-12T00:23:38.803Z,-3.10
2023-03-12T00:26:13.769Z,-3.20
2023-03-12T00:28:40.967Z,-3.30
2023-03-12T00:31:37.465Z,-3.30
2023-03-12T00:34:04.329Z,-3.40
2023-03-12T00:36:32.654Z,-3.50
2023-03-12T00:39:00.991Z,-3.50
2023-03-12T00:41:28.797Z,-3.50
2023-03-12T00:43:55.545Z,-3.50
2023-03-12T00:46:22.291Z,-3.50
2023-03-12T00:48:49.187Z,-3.40
2023-03-12T00:51:16.307Z,-3.40
2023-03-12T00:53:43.255Z,-3.50
2023-03-12T00:56:10.093Z,-3.50
2023-03-12T00:58:36.912Z,-3.50
2023-03-12T01:01:04.288Z,-3.50
2023-03-12T01:03:31.080Z,-3.60
2023-03-12T01:05:57.847Z,-3.60
2023-03-12T01:08:24.821Z,-3.60
2023-03-12T01:10:51.978Z,-3.70
2023-03-12T01:13:18.858Z,-3.70
2023-03-12T01:15:45.779Z,-3.70
2023-03-12T01:18:12.551Z,-3.70
2023-03-12T01:20:40.835Z,-3.80
2023-03-12T01:23:08.178Z,-3.80
2023-03-12T01:25:35.949Z,-3.80
2023-03-12T01:28:02.769Z,-3.90
2023-03-12T01:30:30.062Z,-3.80
2023-03-12T01:32:56.811Z,-3.80
2023-03-12T01:35:23.628Z,-3.90
2023-03-12T01:37:50.818Z,-3.90
2023-03-12T01:40:21.990Z,-3.90
2023-03-12T01:42:56.917Z,-3.80
2023-03-12T01:46:01.102Z,-3.90
2023-03-12T01:48:34.045Z,-3.80
2023-03-12T01:51:02.553Z,-3.90
2023-03-12T01:53:30.497Z,-3.80
2023-03-12T01:55:59.359Z,-3.80
2023-03-12T01:58:28.058Z,-3.80
2023-03-12T02:00:55.476Z,-3.70
2023-03-12T02:03:22.846Z,-3.60
2023-03-12T02:06:08.353Z,-3.50
2023-03-12T02:08:44.794Z,-3.40
2023-03-12T02:11:11.661Z,-3.40
2023-03-12T02:13:38.504Z,-3.40
2023-03-12T02:16:07.129Z,-3.30
2023-03-12T02:18:35.118Z,-3.30
2023-03-12T02:21:09.154Z,-3.20
2023-03-12T02:23:45.607Z,-3.10
2023-03-12T02:26:13.513Z,-3.10
2023-03-12T02:28:44.132Z,-3.00
2023-03-12T02:31:14.636Z,-3.00
2023-03-12T02:33:41.719Z,-3.00
2023-03-12T02:36:09.392Z,-2.90
2023-03-12T02:38:39.231Z,-2.80
2023-03-12T02:41:12.611Z,-2.90
2023-03-12T02:43:40.796Z,-2.80
2023-03-12T02:46:09.141Z,-2.70
2023-03-12T02:48:36.041Z,-2.70
2023-03-12T02:51:03.486Z,-2.70
2023-03-12T02:53:30.396Z,-2.70
2023-03-12T02:55:57.303Z,-2.70
2023-03-12T02:58:24.182Z,-2.70
2023-03-12T03:00:51.316Z,-2.70
2023-03-12T03:03:18.328Z,-2.60
2023-03-12T03:05:45.241Z,-2.60
2023-03-12T03:08:12.038Z,-2.60
2023-03-12T03:10:39.124Z,-2.60
2023-03-12T03:13:05.959Z,-2.50
2023-03-12T03:15:32.816Z,-2.50
2023-03-12T03:17:59.628Z,-2.50
2023-03-12T03:20:26.823Z,-2.50
2023-03-12T03:22:53.653Z,-2.50
2023-03-12T03:25:23.170Z,-2.50
2023-03-12T03:27:49.983Z,-2.40
2023-03-12T03:30:17.224Z,-2.40
2023-03-12T03:32:44.032Z,-2.40
2023-03-12T03:35:11.005Z,-2.40
2023-03-12T03:37:37.848Z,-2.30
2023-03-12T03:40:05.664Z,-2.30
2023-03-12T03:42:32.456Z,-2.30
2023-03-12T03:44:59.204Z,-2.30
2023-03-12T03:47:26.018Z,-2.30
2023-03-12T03:49:52.806Z,-2.30
2023-03-12T03:52:19.673Z,-2.30
2023-03-12T03:54:46.424Z,-2.30
2023-03-12T03:57:13.233Z,-2.20
2023-03-12T03:59:39.980Z,-2.20
2023-03-12T04:02:06.834Z,-2.20
2023-03-12T04:04:33.608Z,-2.20
2023-03-12T04:07:00.465Z,-2.10
2023-03-12T04:09:27.338Z,-2.10
2023-03-12T04:11:54.167Z,-2.10
2023-03-12T04:14:20.957Z,-2.20
2023-03-12T04:16:47.778Z,-2.10
2023-03-12T04:19:14.604Z,-2.10
2023-03-12T04:21:41.368Z,-2.00
2023-03-12T04:24:15.028Z,-2.00
2023-03-12T04:26:42.248Z,-1.90
2023-03-12T04:29:09.010Z,-1.90
2023-03-12T04:31:35.878Z,-2.00
2023-03-12T04:34:02.704Z,-1.90
2023-03-12T04:36:29.618Z,-1.90
2023-03-12T04:38:57.034Z,-1.90
2023-03-12T04:41:24.039Z,-1.90
2023-03-12T04:43:50.790Z,-1.90
2023-03-12T04:46:17.732Z,-1.90
2023-03-12T04:48:44.678Z,-1.90
2023-03-12T04:51:11.559Z,-1.90
2023-03-12T04:53:38.401Z,-1.90
2023-03-12T04:56:05.693Z,-1.90
2023-03-12T04:58:32.653Z,-2.00
2023-03-12T05:00:59.406Z,-2.00
2023-03-12T05:03:26.353Z,-2.00
2023-03-12T05:05:53.352Z,-2.00
2023-03-12T05:08:20.123Z,-2.10
2023-03-12T05:10:46.935Z,-2.10
2023-03-12T05:13:15.979Z,-2.20
2023-03-12T05:15:43.540Z,-2.20
2023-03-12T05:18:10.427Z,-2.20
2023-03-12T05:20:37.202Z,-2.20
2023-03-12T05:23:04.011Z,-2.20
2023-03-12T05:25:30.847Z,-2.20
2023-03-12T05:27:57.660Z,-2.00
2023-03-12T05:30:24.587Z,-2.00
2023-03-12T05:32:51.462Z,-2.00
2023-03-12T05:35:18.349Z,-1.90
2023-03-12T05:37:45.147Z,-1.90
2023-03-12T05:40:12.770Z,-1.80
2023-03-12T05:42:39.671Z,-1.70
2023-03-12T05:45:07.262Z,-1.70
2023-03-12T05:47:34.081Z,-1.60
2023-03-12T05:50:00.792Z,-1.60
2023-03-12T05:52:27.491Z,-1.50
2023-03-12T05:54:54.244Z,-1.50
2023-03-12T05:57:21.003Z,-1.50
2023-03-12T05:59:47.703Z,-1.50
2023-03-12T06:02:14.510Z,-1.50
2023-03-12T06:04:41.344Z,-1.50
2023-03-12T06:07:08.085Z,-1.50
2023-03-12T06:09:36.239Z,-1.40
2023-03-12T06:12:03.055Z,-1.20
2023-03-12T06:14:29.960Z,-1.10
2023-03-12T06:16:56.772Z,-0.90
2023-03-12T06:19:23.509Z,-0.80
2023-03-12T06:21:50.532Z,-0.70
2023-03-12T06:24:17.424Z,-0.60
2023-03-12T06:26:44.204Z,-0.60
2023-03-12T06:29:10.926Z,-0.50
2023-03-12T06:31:39.715Z,-0.40
2023-03-12T06:34:06.560Z,-0.50
2023-03-12T06:36:33.384Z,-0.20
2023-03-12T06:39:00.125Z,-0.10
2023-03-12T06:41:26.850Z,0.10
2023-03-12T06:43:53.696Z,0.20
2023-03-12T06:46:21.965Z,0.40
2023-03-12T06:48:48.913Z,0.50
2023-03-12T06:51:17.047Z,0.50
2023-03-12T06:53:45.237Z,0.60
2023-03-12T06:56:12.173Z,0.70
2023-03-12T06:58:38.917Z,0.80
2023-03-12T07:01:06.193Z,0.90
2023-03-12T07:03:36.236Z,1.10
2023-03-12T07:06:03.112Z,1.20
2023-03-12T07:08:31.068Z,1.20
2023-03-12T07:11:01.232Z,1.20
2023-03-12T07:13:28.265Z,1.20
2023-03-12T07:15:55.231Z,1.30
2023-03-12T07:18:21.975Z,1.40
2023-03-12T07:20:48.716Z,1.30
2023-03-12T07:23:15.512Z,1.20
2023-03-12T07:25:44.600Z,1.00
2023-03-12T07:28:12.790Z,0.90
2023-03-12T07:30:39.880Z,0.90
2023-03-12T07:33:12.503Z,0.80
2023-03-12T07:35:40.227Z,1.00
2023-03-12T07:38:08.289Z,1.00
2023-03-12T07:40:36.403Z,1.00
2023-03-12T07:43:06.705Z,1.00
2023-03-12T07:45:33.459Z,1.10
2023-03-12T07:48:00.206Z,1.30
2023-03-12T07:50:27.046Z,1.30
2023-03-12T07:52:53.801Z,1.20
2023-03-12T07:55:20.631Z,1.20
2023-03-12T07:57:47.654Z,1.20
2023-03-12T08:00:15.387Z,1.30
2023-03-12T08:02:42.338Z,1.40
2023-03-12T08:05:10.138Z,1.50
2023-03-12T08:07:37.016Z,1.60
2023-03-12T08:10:07.487Z,1.80
2023-03-12T08:12:34.406Z,2.10
2023-03-12T08:15:01.080Z,2.40
2023-03-12T08:17:27.798Z,2.70
2023-03-12T08:19:54.516Z,3.00
2023-03-12T08:22:21.238Z,3.20
2023-03-12T08:24:48.024Z,3.20
2023-03-12T08:27:14.964Z,3.20
2023-03-12T08:29:41.886Z,3.00
2023-03-12T08:32:10.828Z,3.10
2023-03-12T08:34:37.893Z,3.30
2023-03-12T08:37:05.012Z,3.50
2023-03-12T08:39:32.065Z,3.90
2023-03-12T08:41:58.861Z,4.30
2023-03-12T08:44:26.174Z,4.40
2023-03-12T08:46:53.085Z,4.50
2023-03-12T08:49:20.937Z,4.50
2023-03-12T08:51:47.850Z,4.40
2023-03-12T08:54:14.655Z,4.50
2023-03-12T08:56:43.208Z,4.60
2023-03-12T08:59:11.775Z,4.40
2023-03-12T09:01:39.816Z,4.40
2023-03-12T09:04:07.436Z,4.40
2023-03-12T09:06:35.402Z,4.40
2023-03-12T09:09:05.334Z,4.30
2023-03-12T09:11:34.133Z,4.40
2023-03-12T09:14:39.522Z,4.60
2023-03-12T09:16:49.554Z,4.90
2023-03-12T09:19:16.575Z,5.20
2023-03-12T09:21:43.574Z,5.50
2023-03-12T09:24:11.241Z,5.70
2023-03-12T09:26:37.997Z,6.00
2023-03-12T09:29:04.838Z,6.20
2023-03-12T09:31:31.637Z,6.30
2023-03-12T09:33:58.427Z,6.20
2023-03-12T09:36:25.411Z,6.10
2023-03-12T09:38:52.097Z,5.80
2023-03-12T09:41:23.289Z,5.60
2023-03-12T09:43:54.457Z,5.70
2023-03-12T09:46:33.708Z,5.90
2023-03-12T09:49:05.528Z,6.10
2023-03-12T09:51:41.094Z,6.00
2023-03-12T09:54:34.003Z,6.00
2023-03-12T09:57:08.696Z,6.30
2023-03-12T09:59:36.986Z,6.30
2023-03-12T10:02:20.960Z,6.40
2023-03-12T10:05:00.035Z,6.30
2023-03-12T10:07:39.807Z,6.20
2023-03-12T10:10:25.390Z,6.30
2023-03-12T10:13:01.386Z,6.30
2023-03-12T10:15:49.523Z,6.70
2023-03-12T10:18:40.628Z,6.90
2023-03-12T10:21:11.928Z,7.00
2023-03-12T10:24:12.935Z,6.80
2023-03-12T10:27:11.126Z,6.90
2023-03-12T10:29:44.808Z,6.90
2023-03-12T10:32:11.698Z,6.90
2023-03-12T10:34:45.852Z,6.50
2023-03-12T10:37:37.205Z,6.40
2023-03-12T10:40:05.990Z,6.30
2023-03-12T10:42:33.340Z,6.20
2023-03-12T10:45:06.160Z,6.30
2023-03-12T10:47:37.161Z,6.50
2023-03-12T10:50:26.166Z,7.00
2023-03-12T10:53:12.728Z,7.60
2023-03-12T10:55:40.188Z,7.60
2023-03-12T10:58:06.977Z,7.70
2023-03-12T11:00:34.025Z,7.50
2023-03-12T11:03:05.007Z,7.30
2023-03-12T11:05:35.060Z,7.30
2023-03-12T11:08:04.055Z,7.10
2023-03-12T11:10:39.975Z,6.90
2023-03-12T11:13:31.398Z,6.70
2023-03-12T11:16:21.295Z,6.40
2023-03-12T11:19:06.533Z,6.20
2023-03-12T11:21:40.228Z,6.20
2023-03-12T11:24:12.405Z,6.30
2023-03-12T11:26:52.515Z,6.40
2023-03-12T11:29:26.636Z,6.40
2023-03-12T11:31:59.353Z,6.50
2023-03-12T11:34:32.014Z,6.40
2023-03-12T11:37:20.606Z,6.30
2023-03-12T11:40:25.820Z,6.20
2023-03-12T11:43:15.537Z,6.20
2023-03-12T11:46:08.592Z,6.20
2023-03-12T11:49:08.656Z,6.00
2023-03-12T11:51:50.364Z,6.00
2023-03-12T11:54:41.303Z,5.90
2023-03-12T11:57:30.794Z,5.90
2023-03-12T12:00:10.362Z,5.80
2023-03-12T12:03:08.179Z,5.70
2023-03-12T12:05:53.337Z,5.80
2023-03-12T12:08:29.134Z,5.70
2023-03-12T12:11:13.862Z,5.50
2023-03-12T12:14:02.333Z,5.60
2023-03-12T12:17:06.537Z,5.60
2023-03-12T12:19:45.333Z,5.70
2023-03-12T12:22:21.189Z,5.80
2023-03-12T12:24:59.880Z,5.70
2023-03-12T12:27:32.302Z,5.70
2023-03-12T12:30:31.661Z,5.80
2023-03-12T12:33:43.686Z,5.70
2023-03-12T12:36:10.996Z,5.70
2023-03-12T12:39:01.266Z,5.60
2023-03-12T12:41:34.669Z,5.60
2023-03-12T12:44:19.202Z,5.60
2023-03-12T12:46:55.312Z,5.60
2023-03-12T12:49:37.890Z,5.50
2023-03-12T12:52:09.036Z,5.50
2023-03-12T12:55:06.846Z,5.40
2023-03-12T12:57:44.398Z,5.40
2023-03-12T13:00:39.481Z,5.50
2023-03-12T13:03:06.951Z,5.60
2023-03-12T13:05:36.803Z,5.60
2023-03-12T13:08:06.193Z,5.60
2023-03-12T13:10:34.371Z,5.60
2023-03-12T13:13:33.937Z,5.80
2023-03-12T13:16:31.373Z,5.80
2023-03-12T13:19:13.410Z,5.90
2023-03-12T13:21:59.027Z,5.90
2023-03-12T13:24:33.934Z,6.00
2023-03-12T13:27:12.868Z,6.10
2023-03-12T13:29:41.786Z,6.20
2023-03-12T13:32:36.557Z,6.20
2023-03-12T13:35:18.377Z,6.20
2023-03-12T13:38:00.389Z,6.20
2023-03-12T13:40:29.898Z,6.20
2023-03-12T13:43:08.504Z,6.30
2023-03-12T13:45:41.316Z,6.20
2023-03-12T13:48:19.845Z,6.30
2023-03-12T13:50:53.491Z,6.20
2023-03-12T13:53:33.295Z,6.20
2023-03-12T13:56:21.130Z,6.20
2023-03-12T13:59:15.415Z,6.40
2023-03-12T14:01:48.216Z,6.50
2023-03-12T14:04:21.658Z,6.50
2023-03-12T14:07:09.857Z,6.60
2023-03-12T14:09:50.056Z,6.50
2023-03-12T14:12:38.056Z,6.50
2023-03-12T14:15:11.548Z,6.50
2023-03-12T14:17:38.606Z,6.50
2023-03-12T14:20:21.455Z,6.50
2023-03-12T14:22:55.639Z,6.70
2023-03-12T14:25:33.410Z,6.70
2023-03-12T14:28:01.321Z,6.80
2023-03-12T14:30:44.039Z,7.00
2023-03-12T14:33:14.543Z,7.10
2023-03-12T14:36:04.338Z,7.20
2023-03-12T14:38:35.493Z,7.30
2023-03-12T14:41:14.653Z,7.40
2023-03-12T14:43:43.813Z,7.50
2023-03-12T14:46:24.473Z,7.70
2023-03-12T14:48:53.194Z,7.70
2023-03-12T14:51:29.480Z,7.70
2023-03-12T14:54:01.890Z,7.60
2023-03-12T14:56:35.271Z,7.70
2023-03-12T14:59:20.890Z,7.70
2023-03-12T15:01:51.226Z,7.70
2023-03-12T15:04:21.706Z,7.60
2023-03-12T15:06:50.022Z,7.60
2023-03-12T15:09:19.796Z,7.60
2023-03-12T15:11:54.342Z,7.60
2023-03-12T15:14:23.041Z,7.70
2023-03-12T15:16:50.850Z,7.70
2023-03-12T15:19:23.139Z,7.60
2023-03-12T15:21:50.673Z,7.70
2023-03-12T15:24:18.159Z,7.80
2023-03-12T15:26:44.896Z,7.90
2023-03-12T15:29:31.871Z,8.00
2023-03-12T15:32:00.410Z,8.00
2023-03-12T15:34:35.803Z,8.00
2023-03-12T15:37:19.707Z,8.00
2023-03-12T15:39:50.817Z,7.90
2023-03-12T15:42:20.580Z,8.00
2023-03-12T15:44:50.195Z,8.00
2023-03-12T15:47:20.490Z,8.00
2023-03-12T15:50:01.217Z,7.90
2023-03-12T15:52:34.104Z,7.90
2023-03-12T15:55:07.150Z,7.90
2023-03-12T15:57:35.326Z,7.80
2023-03-12T16:00:13.639Z,7.80
2023-03-12T16:03:16.225Z,7.80
2023-03-12T16:05:43.441Z,7.70
2023-03-12T16:08:15.863Z,7.60
2023-03-12T16:10:42.633Z,7.50
2023-03-12T16:13:13.835Z,7.50
2023-03-12T16:15:40.631Z,7.60
2023-03-12T16:18:13.895Z,7.50
2023-03-12T16:20:40.912Z,7.40
2023-03-12T16:23:07.949Z,7.40
2023-03-12T16:25:35.293Z,7.40
2023-03-12T16:28:05.228Z,7.30
2023-03-12T16:30:35.497Z,7.20
2023-03-12T16:33:08.645Z,7.20
2023-03-12T16:35:35.749Z,7.20
2023-03-12T16:38:03.416Z,7.20
2023-03-12T16:40:34.219Z,7.20
2023-03-12T16:43:03.752Z,7.20
2023-03-12T16:45:33.867Z,7.20
2023-03-12T16:48:02.731Z,7.10
2023-03-12T16:50:29.881Z,7.10
2023-03-12T16:52:57.745Z,7.10
2023-03-12T16:55:28.222Z,7.10
2023-03-12T16:58:00.210Z,7.10
2023-03-12T17:00:33.521Z,7.10
2023-03-12T17:03:00.828Z,7.10
2023-03-12T17:05:29.290Z,7.10
2023-03-12T17:07:56.924Z,7.10
2023-03-12T17:10:24.888Z,7.10
2023-03-12T17:12:52.942Z,7.10
2023-03-12T17:15:30.682Z,7.10
2023-03-12T17:17:59.404Z,7.00
2023-03-12T17:20:26.130Z,7.00
2023-03-12T17:22:53.131Z,7.00
2023-03-12T17:25:23.982Z,6.90
2023-03-12T17:27:51.114Z,6.90
2023-03-12T17:30:18.514Z,6.90
2023-03-12T17:32:45.677Z,6.90
2023-03-12T17:35:14.166Z,6.80
2023-03-12T17:37:40.982Z,6.80
2023-03-12T17:40:09.886Z,6.80
2023-03-12T17:42:37.983Z,6.80
2023-03-12T17:45:07.634Z,6.80
2023-03-12T17:47:35.363Z,6.80
2023-03-12T17:50:02.947Z,6.80
2023-03-12T17:52:31.748Z,6.80
2023-03-12T17:54:58.919Z,6.80
2023-03-12T17:57:25.754Z,6.90
2023-03-12T17:59:52.763Z,6.80
2023-03-12T18:02:19.647Z,6.90
2023-03-12T18:04:46.367Z,6.90
2023-03-12T18:07:13.172Z,6.90
2023-03-12T18:09:39.844Z,6.80
2023-03-12T18:12:06.939Z,6.80
2023-03-12T18:14:33.741Z,6.80
2023-03-12T18:17:00.472Z,6.80
2023-03-12T18:19:27.212Z,6.80
2023-03-12T18:21:53.978Z,6.80
2023-03-12T18:24:20.716Z,6.90
2023-03-12T18:26:50.551Z,6.90
2023-03-12T18:29:17.428Z,6.90
2023-03-12T18:31:44.346Z,6.90
2023-03-12T18:34:11.272Z,6.90
2023-03-12T18:36:38.047Z,6.90
2023-03-12T18:39:06.525Z,6.90
2023-03-12T18:41:33.522Z,6.90
2023-03-12T18:44:00.735Z,6.90
2023-03-12T18:46:28.236Z,6.90
2023-03-12T18:48:55.181Z,6.90
2023-03-12T18:51:22.341Z,6.90
2023-03-12T18:53:49.258Z,6.90
2023-03-12T18:56:16.098Z,6.90
2023-03-12T18:58:42.990Z,6.90
2023-03-12T19:01:10.818Z,6.90
2023-03-12T19:03:37.629Z,6.90
2023-03-12T19:06:06.939Z,7.00
2023-03-12T19:08:34.926Z,7.00
2023-03-12T19:11:05.211Z,7.00
2023-03-12T19:13:32.215Z,7.10
2023-03-12T19:16:00.758Z,7.10
2023-03-12T19:18:27.985Z,7.10
2023-03-12T19:20:55.453Z,7.20
2023-03-12T19:23:22.698Z,7.20
2023-03-12T19:25:52.261Z,7.20
2023-03-12T19:28:19.175Z,7.20
2023-03-12T19:30:46.049Z,7.20
2023-03-12T19:33:13.197Z,7.20
2023-03-12T19:35:41.575Z,7.20
2023-03-12T19:38:08.860Z,7.10
2023-03-12T19:40:35.825Z,7.20
2023-03-12T19:43:03.092Z,7.20
2023-03-12T19:45:30.056Z,7.20
2023-03-12T19:47:57.000Z,7.10
2023-03-12T19:50:24.213Z,7.10
2023-03-12T19:52:51.102Z,7.10
2023-03-12T19:55:18.081Z,7.10
2023-03-12T19:57:45.068Z,7.10
2023-03-12T20:00:12.506Z,7.00
2023-03-12T20:02:39.913Z,7.00
2023-03-12T20:05:08.060Z,7.00
2023-03-12T20:07:35.621Z,7.00
2023-03-12T20:10:02.505Z,7.00
2023-03-12T20:12:29.321Z,7.10
2023-03-12T20:14:56.195Z,7.00
2023-03-12T20:17:23.007Z,7.00
2023-03-12T20:19:49.848Z,7.10
2023-03-12T20:22:16.699Z,7.10
2023-03-12T20:24:43.788Z,7.10
2023-03-12T20:27:10.653Z,7.10
2023-03-12T20:29:37.584Z,7.20
2023-03-12T20:32:04.702Z,7.20
2023-03-12T20:34:31.732Z,7.30
2023-03-12T20:36:58.732Z,7.30
2023-03-12T20:39:25.623Z,7.30
2023-03-12T20:41:52.423Z,7.30
2023-03-12T20:44:19.473Z,7.30
2023-03-12T20:46:47.124Z,7.30
2023-03-12T20:49:14.483Z,7.30
2023-03-12T20:51:42.797Z,7.20
2023-03-12T20:54:09.837Z,7.20
2023-03-12T20:56:38.396Z,7.20
2023-03-12T20:59:05.303Z,7.20
2023-03-12T21:01:33.173Z,7.10
2023-03-12T21:04:00.736Z,7.10
2023-03-12T21:06:27.744Z,7.10
2023-03-12T21:08:58.572Z,7.10
2023-03-12T21:11:26.899Z,7.10
2023-03-12T21:13:54.112Z,7.10
2023-03-12T21:16:20.941Z,7.20
2023-03-12T21:18:47.811Z,7.30
2023-03-12T21:21:15.029Z,7.50
2023-03-12T21:23:42.001Z,7.50
2023-03-12T21:26:09.674Z,7.60
2023-03-12T21:28:36.816Z,7.60
2023-03-12T21:31:11.728Z,7.60
2023-03-12T21:33:38.979Z,7.60
2023-03-12T21:36:11.727Z,7.60
2023-03-12T21:38:39.864Z,7.60
2023-03-12T21:41:08.669Z,7.60
2023-03-12T21:43:36.002Z,7.60
2023-03-12T21:46:08.022Z,7.60
2023-03-12T21:48:35.898Z,7.60
2023-03-12T21:51:09.172Z,7.60
2023-03-12T21:53:36.657Z,7.60
2023-03-12T21:56:05.793Z,7.60
2023-03-12T21:58:33.387Z,7.50
2023-03-12T22:01:10.587Z,7.50
2023-03-12T22:03:38.286Z,7.50
2023-03-12T22:06:05.937Z,7.40
2023-03-12T22:08:33.460Z,7.40
2023-03-12T22:11:00.471Z,7.40
2023-03-12T22:13:27.334Z,7.30
2023-03-12T22:15:59.738Z,7.30
2023-03-12T22:18:28.221Z,7.40
2023-03-12T22:20:56.848Z,7.40
2023-03-12T22:23:24.682Z,7.40
2023-03-12T22:25:51.656Z,7.40
2023-03-12T22:28:18.808Z,7.50
2023-03-12T22:30:45.955Z,7.60
2023-03-12T22:33:12.828Z,7.70
2023-03-12T22:35:47.215Z,7.70
2023-03-12T22:38:14.169Z,7.80
2023-03-12T22:40:42.392Z,7.80
2023-03-12T22:43:09.515Z,7.80
2023-03-12T22:45:36.513Z,7.80
2023-03-12T22:48:03.843Z,7.70
2023-03-12T22:50:31.003Z,7.80
2023-03-12T22:52:58.189Z,7.80
2023-03-12T22:55:25.022Z,7.70
2023-03-12T22:57:51.968Z,7.70
2023-03-12T23:00:23.938Z,7.70
2023-03-12T23:02:51.217Z,7.70
2023-03-12T23:05:18.141Z,7.80
2023-03-12T23:07:45.059Z,7.80
2023-03-12T23:10:12.147Z,7.80
2023-03-12T23:12:38.957Z,7.70
2023-03-12T23:15:06.811Z,7.70
2023-03-12T23:17:33.669Z,7.70
2023-03-12T23:20:00.432Z,7.60
2023-03-12T23:22:27.310Z,7.60
2023-03-12T23:24:54.092Z,7.50
2023-03-12T23:27:20.894Z,7.50
2023-03-12T23:29:47.653Z,7.50
2023-03-12T23:32:14.489Z,7.50
2023-03-12T23:34:41.316Z,7.50
2023-03-12T23:37:08.448Z,7.50
2023-03-12T23:39:42.215Z,7.40
2023-03-12T23:42:15.244Z,7.30
2023-03-12T23:44:42.013Z,7.30
2023-03-12T23:47:08.790Z,7.30
2023-03-12T23:49:35.649Z,7.20
2023-03-12T23:52:02.528Z,7.20
2023-03-12T23:54:29.341Z,7.10
2023-03-12T23:56:56.358Z,7.20
2023-03-12T23:59:23.270Z,7.20
